sensor_id;sensor_type;location;lat;lon;timestamp;pressure;altitude;pressure_sealevel;temperature;humidity
22206;BME280;11272;50.104;8.754;2024-03-23T00:55:59;99727.78;;;12.35;63.40
22206;BME280;11272;50.104;8.754;2024-03-23T00:58:24;99732.94;;;12.39;63.38
22206;BME280;11272;50.104;8.754;2024-03-23T01:00:50;99723.03;;;12.43;63.85
22206;BME280;11272;50.104;8.754;2024-03-23T01:03:15;99719.34;;;12.45;63.62
22206;BME280;11272;50.104;8.754;2024-03-23T01:05:41;99700.56;;;12.50;63.60
22206;BME280;11272;50.104;8.754;2024-03-23T01:08:06;99698.47;;;12.56;63.25
22206;BME280;11272;50.104;8.754;2024-03-23T01:10:33;99703.50;;;12.64;63.70
22206;BME280;11272;50.104;8.754;2024-03-23T01:12:59;99703.34;;;12.67;63.60
22206;BME280;11272;50.104;8.754;2024-03-23T01:15:24;99704.22;;;12.68;63.29
22206;BME280;11272;50.104;8.754;2024-03-23T01:17:50;99706.78;;;12.71;62.98
22206;BME280;11272;50.104;8.754;2024-03-23T01:20:16;99685.59;;;12.68;63.26
22206;BME280;11272;50.104;8.754;2024-03-23T01:22:42;99696.28;;;12.66;63.32
22206;BME280;11272;50.104;8.754;2024-03-23T01:25:07;99691.91;;;12.65;63.29
22206;BME280;11272;50.104;8.754;2024-03-23T01:27:33;99693.72;;;12.64;63.52
22206;BME280;11272;50.104;8.754;2024-03-23T01:29:59;99692.94;;;12.61;63.65
22206;BME280;11272;50.104;8.754;2024-03-23T01:32:25;99686.66;;;12.63;63.33
22206;BME280;11272;50.104;8.754;2024-03-23T01:34:50;99672.31;;;12.66;63.40
22206;BME280;11272;50.104;8.754;2024-03-23T01:37:17;99674.00;;;12.69;63.53
22206;BME280;11272;50.104;8.754;2024-03-23T01:39:42;99669.41;;;12.72;63.27
22206;BME280;11272;50.104;8.754;2024-03-23T01:56:20;99632.97;;;12.73;63.44
22206;BME280;11272;50.104;8.754;2024-03-23T02:07:54;99614.19;;;12.55;63.32
22206;BME280;11272;50.104;8.754;2024-03-23T02:30:03;99590.31;;;12.54;63.47
22206;BME280;11272;50.104;8.754;2024-03-23T02:35:35;99580.63;;;12.51;63.32
22206;BME280;11272;50.104;8.754;2024-03-23T02:38:00;99574.53;;;12.49;63.77
22206;BME280;11272;50.104;8.754;2024-03-23T02:40:28;99572.91;;;12.45;63.71
22206;BME280;11272;50.104;8.754;2024-03-23T02:48:32;99556.50;;;12.34;63.65
22206;BME280;11272;50.104;8.754;2024-03-23T02:50:58;99570.97;;;12.29;63.98
22206;BME280;11272;50.104;8.754;2024-03-23T02:53:24;99565.72;;;12.27;64.29
22206;BME280;11272;50.104;8.754;2024-03-23T03:01:48;99536.69;;;12.21;64.35
22206;BME280;11272;50.104;8.754;2024-03-23T03:10:23;99549.84;;;12.24;64.47
22206;BME280;11272;50.104;8.754;2024-03-23T03:12:48;99541.97;;;12.22;64.41
22206;BME280;11272;50.104;8.754;2024-03-23T03:23:50;99539.22;;;12.24;64.48
22206;BME280;11272;50.104;8.754;2024-03-23T03:26:18;99544.47;;;12.26;64.90
22206;BME280;11272;50.104;8.754;2024-03-23T03:31:32;99523.06;;;12.29;64.66
22206;BME280;11272;50.104;8.754;2024-03-23T03:33:58;99515.00;;;12.30;64.84
22206;BME280;11272;50.104;8.754;2024-03-23T03:36:23;99519.38;;;12.31;64.82
22206;BME280;11272;50.104;8.754;2024-03-23T03:38:49;99517.66;;;12.30;65.04
22206;BME280;11272;50.104;8.754;2024-03-23T03:41:15;99510.53;;;12.31;65.16
22206;BME280;11272;50.104;8.754;2024-03-23T03:43:40;99499.94;;;12.29;65.66
22206;BME280;11272;50.104;8.754;2024-03-23T03:46:06;99509.81;;;12.27;65.14
22206;BME280;11272;50.104;8.754;2024-03-23T03:54:25;99517.13;;;12.22;65.35
22206;BME280;11272;50.104;8.754;2024-03-23T03:56:50;99518.94;;;12.21;65.32
22206;BME280;11272;50.104;8.754;2024-03-23T03:59:17;99516.22;;;12.23;65.76
22206;BME280;11272;50.104;8.754;2024-03-23T04:04:36;99512.34;;;12.30;65.46
22206;BME280;11272;50.104;8.754;2024-03-23T04:07:02;99516.69;;;12.33;65.39
22206;BME280;11272;50.104;8.754;2024-03-23T04:09:28;99521.91;;;12.34;65.46
22206;BME280;11272;50.104;8.754;2024-03-23T04:11:53;99528.09;;;12.35;65.53
22206;BME280;11272;50.104;8.754;2024-03-23T04:14:19;99531.72;;;12.34;65.52
22206;BME280;11272;50.104;8.754;2024-03-23T04:16:44;99528.03;;;12.36;65.60
22206;BME280;11272;50.104;8.754;2024-03-23T04:19:10;99522.72;;;12.36;65.64
22206;BME280;11272;50.104;8.754;2024-03-23T04:21:37;99532.44;;;12.37;65.57
22206;BME280;11272;50.104;8.754;2024-03-23T04:24:04;99543.09;;;12.37;65.57
22206;BME280;11272;50.104;8.754;2024-03-23T04:26:29;99559.72;;;12.22;65.15
22206;BME280;11272;50.104;8.754;2024-03-23T04:28:55;99560.28;;;12.08;66.14
22206;BME280;11272;50.104;8.754;2024-03-23T04:31:20;99557.28;;;11.96;67.64
22206;BME280;11272;50.104;8.754;2024-03-23T04:33:47;99568.13;;;11.91;68.14
22206;BME280;11272;50.104;8.754;2024-03-23T04:36:12;99580.91;;;11.81;69.11
22206;BME280;11272;50.104;8.754;2024-03-23T04:38:38;99579.50;;;11.71;69.80
22206;BME280;11272;50.104;8.754;2024-03-23T04:41:04;99576.16;;;11.66;70.90
22206;BME280;11272;50.104;8.754;2024-03-23T04:43:29;99570.91;;;11.65;71.42
22206;BME280;11272;50.104;8.754;2024-03-23T04:45:55;99557.78;;;11.60;71.80
22206;BME280;11272;50.104;8.754;2024-03-23T04:48:21;99565.84;;;11.59;72.46
22206;BME280;11272;50.104;8.754;2024-03-23T04:50:48;99559.72;;;11.57;73.07
22206;BME280;11272;50.104;8.754;2024-03-23T04:53:15;99559.13;;;11.49;72.95
22206;BME280;11272;50.104;8.754;2024-03-23T04:55:42;99561.06;;;11.45;73.91
22206;BME280;11272;50.104;8.754;2024-03-23T04:58:08;99569.25;;;11.39;74.07
22206;BME280;11272;50.104;8.754;2024-03-23T05:00:34;99581.06;;;11.32;74.29
22206;BME280;11272;50.104;8.754;2024-03-23T05:03:02;99598.22;;;11.23;74.68
22206;BME280;11272;50.104;8.754;2024-03-23T05:05:29;99601.44;;;11.08;74.43
22206;BME280;11272;50.104;8.754;2024-03-23T05:07:55;99603.59;;;10.98;75.45
22206;BME280;11272;50.104;8.754;2024-03-23T05:10:21;99598.38;;;10.95;75.54
22206;BME280;11272;50.104;8.754;2024-03-23T05:12:46;99597.53;;;10.95;76.51
22206;BME280;11272;50.104;8.754;2024-03-23T05:15:12;99596.75;;;10.91;76.15
22206;BME280;11272;50.104;8.754;2024-03-23T05:17:38;99596.00;;;10.88;76.46
22206;BME280;11272;50.104;8.754;2024-03-23T05:20:05;99608.41;;;10.87;76.86
22206;BME280;11272;50.104;8.754;2024-03-23T05:22:39;99623.53;;;10.85;76.65
22206;BME280;11272;50.104;8.754;2024-03-23T05:25:05;99644.84;;;10.84;77.01
22206;BME280;11272;50.104;8.754;2024-03-23T05:27:34;99664.44;;;10.80;77.00
22206;BME280;11272;50.104;8.754;2024-03-23T05:29:59;99675.19;;;10.77;77.57
22206;BME280;11272;50.104;8.754;2024-03-23T05:32:25;99682.28;;;10.76;77.78
22206;BME280;11272;50.104;8.754;2024-03-23T05:34:51;99677.09;;;10.73;77.78
22206;BME280;11272;50.104;8.754;2024-03-23T05:37:25;99681.41;;;10.76;77.82
22206;BME280;11272;50.104;8.754;2024-03-23T05:39:51;99684.03;;;10.77;78.24
22206;BME280;11272;50.104;8.754;2024-03-23T05:42:17;99691.13;;;10.77;78.13
22206;BME280;11272;50.104;8.754;2024-03-23T05:44:46;99707.81;;;10.80;79.20
22206;BME280;11272;50.104;8.754;2024-03-23T05:47:12;99706.88;;;10.81;79.06
22206;BME280;11272;50.104;8.754;2024-03-23T05:49:42;99720.16;;;10.81;79.26
22206;BME280;11272;50.104;8.754;2024-03-23T05:52:09;99727.19;;;10.84;79.22
22206;BME280;11272;50.104;8.754;2024-03-23T05:57:30;99743.81;;;10.89;79.55
22206;BME280;11272;50.104;8.754;2024-03-23T05:59:58;99748.19;;;10.90;79.71
22206;BME280;11272;50.104;8.754;2024-03-23T06:02:24;99753.56;;;10.88;79.54
22206;BME280;11272;50.104;8.754;2024-03-23T06:04:49;99759.75;;;10.89;80.10
22206;BME280;11272;50.104;8.754;2024-03-23T06:07:15;99757.97;;;10.89;79.98
22206;BME280;11272;50.104;8.754;2024-03-23T06:12:53;99772.09;;;10.90;80.71
22206;BME280;11272;50.104;8.754;2024-03-23T06:15:29;99780.03;;;10.91;80.78
22206;BME280;11272;50.104;8.754;2024-03-23T06:17:56;99771.13;;;10.92;80.49
22206;BME280;11272;50.104;8.754;2024-03-23T06:23:16;99758.56;;;10.97;80.86
22206;BME280;11272;50.104;8.754;2024-03-23T06:25:43;99769.06;;;11.01;80.87
22206;BME280;11272;50.104;8.754;2024-03-23T06:28:12;99777.00;;;11.02;81.30
22206;BME280;11272;50.104;8.754;2024-03-23T06:41:54;99835.72;;;10.94;80.51
22206;BME280;11272;50.104;8.754;2024-03-23T06:44:52;99854.41;;;10.91;80.19
22206;BME280;11272;50.104;8.754;2024-03-23T06:47:17;99867.72;;;10.90;80.29
22206;BME280;11272;50.104;8.754;2024-03-23T06:49:43;99860.69;;;10.89;80.27
22206;BME280;11272;50.104;8.754;2024-03-23T06:52:09;99864.44;;;10.82;79.24
22206;BME280;11272;50.104;8.754;2024-03-23T06:54:34;99880.53;;;10.77;79.30
22206;BME280;11272;50.104;8.754;2024-03-23T06:59:54;99878.91;;;10.73;78.78
22206;BME280;11272;50.104;8.754;2024-03-23T07:05:16;99892.09;;;10.75;79.23
22206;BME280;11272;50.104;8.754;2024-03-23T07:07:42;99893.03;;;10.74;79.17
22206;BME280;11272;50.104;8.754;2024-03-23T07:10:08;99901.84;;;10.74;78.55
22206;BME280;11272;50.104;8.754;2024-03-23T07:12:34;99904.50;;;10.74;78.33
22206;BME280;11272;50.104;8.754;2024-03-23T08:35:23;100049.00;;;14.61;60.29
22206;BME280;11272;50.104;8.754;2024-03-23T09:25:44;100071.56;;;19.80;37.85
22206;BME280;11272;50.104;8.754;2024-03-23T10:54:19;100032.88;;;18.38;36.25
22206;BME280;11272;50.104;8.754;2024-03-23T13:29:49;100061.78;;;15.51;37.57
22206;BME280;11272;50.104;8.754;2024-03-23T13:53:17;100100.22;;;12.69;58.88
22206;BME280;11272;50.104;8.754;2024-03-23T13:55:47;100093.97;;;13.19;60.66
22206;BME280;11272;50.104;8.754;2024-03-23T13:58:16;100076.50;;;14.01;63.22
22206;BME280;11272;50.104;8.754;2024-03-23T14:00:41;100067.38;;;14.89;65.75
22206;BME280;11272;50.104;8.754;2024-03-23T14:03:11;100064.13;;;15.58;66.36
22206;BME280;11272;50.104;8.754;2024-03-23T14:08:28;100067.00;;;16.09;66.39
22206;BME280;11272;50.104;8.754;2024-03-23T14:10:57;100059.91;;;16.61;66.80
22206;BME280;11272;50.104;8.754;2024-03-23T14:13:22;100055.59;;;16.91;64.96
22206;BME280;11272;50.104;8.754;2024-03-23T14:15:53;100050.81;;;16.80;61.94
22206;BME280;11272;50.104;8.754;2024-03-23T14:18:18;100051.25;;;16.89;61.57
22206;BME280;11272;50.104;8.754;2024-03-23T14:29:10;100032.88;;;16.98;59.37
22206;BME280;11272;50.104;8.754;2024-03-23T14:31:38;100028.28;;;17.16;58.66
22206;BME280;11272;50.104;8.754;2024-03-23T15:55:23;100020.34;;;12.44;53.79
22206;BME280;11272;50.104;8.754;2024-03-23T16:07:24;100003.06;;;10.64;59.26
22206;BME280;11272;50.104;8.754;2024-03-23T16:27:26;99956.94;;;10.37;65.51
22206;BME280;11272;50.104;8.754;2024-03-23T16:29:53;99953.56;;;10.32;65.33
22206;BME280;11272;50.104;8.754;2024-03-23T16:32:21;99973.13;;;10.28;66.29
22206;BME280;11272;50.104;8.754;2024-03-23T16:34:48;99974.03;;;10.27;66.81
22206;BME280;11272;50.104;8.754;2024-03-23T16:37:14;99974.63;;;10.38;67.77
22206;BME280;11272;50.104;8.754;2024-03-23T16:39:40;99973.50;;;10.46;67.54
22206;BME280;11272;50.104;8.754;2024-03-23T16:42:05;99966.50;;;10.44;67.85
22206;BME280;11272;50.104;8.754;2024-03-23T16:44:31;99959.50;;;10.41;68.23
22206;BME280;11272;50.104;8.754;2024-03-23T16:46:56;99967.53;;;10.38;68.02
22206;BME280;11272;50.104;8.754;2024-03-23T16:49:27;99965.16;;;10.29;68.33
22206;BME280;11272;50.104;8.754;2024-03-23T16:51:53;99967.19;;;10.20;68.23
22206;BME280;11272;50.104;8.754;2024-03-23T16:57:07;99968.09;;;10.19;68.95
22206;BME280;11272;50.104;8.754;2024-03-23T16:59:33;99979.72;;;10.13;69.23
22206;BME280;11272;50.104;8.754;2024-03-23T17:02:01;99979.00;;;10.06;69.24
22206;BME280;11272;50.104;8.754;2024-03-23T17:04:26;99976.31;;;10.08;69.87
22206;BME280;11272;50.104;8.754;2024-03-23T17:06:52;99977.97;;;10.12;69.76
22206;BME280;11272;50.104;8.754;2024-03-23T17:09:17;99977.97;;;10.12;70.17
22206;BME280;11272;50.104;8.754;2024-03-23T17:11:43;99978.13;;;10.06;70.19
22206;BME280;11272;50.104;8.754;2024-03-23T17:14:12;99979.28;;;9.96;69.88
22206;BME280;11272;50.104;8.754;2024-03-23T17:16:40;99968.09;;;9.85;69.88
22206;BME280;11272;50.104;8.754;2024-03-23T17:19:06;99970.75;;;9.83;70.45
22206;BME280;11272;50.104;8.754;2024-03-23T17:21:35;99977.19;;;9.75;70.09
22206;BME280;11272;50.104;8.754;2024-03-23T17:24:07;99977.31;;;9.70;70.34
22206;BME280;11272;50.104;8.754;2024-03-23T17:26:35;99971.16;;;9.68;70.30
22206;BME280;11272;50.104;8.754;2024-03-23T17:29:00;99972.91;;;9.69;70.78
22206;BME280;11272;50.104;8.754;2024-03-23T17:31:26;99972.03;;;9.68;71.06
22206;BME280;11272;50.104;8.754;2024-03-23T17:33:51;99967.59;;;9.69;70.95
22206;BME280;11272;50.104;8.754;2024-03-23T17:36:18;99966.81;;;9.65;71.68
22206;BME280;11272;50.104;8.754;2024-03-23T17:38:55;99971.31;;;9.62;71.29
22206;BME280;11272;50.104;8.754;2024-03-23T17:41:22;99966.13;;;9.57;71.67
22206;BME280;11272;50.104;8.754;2024-03-23T17:43:47;99972.38;;;9.55;71.57
22206;BME280;11272;50.104;8.754;2024-03-23T17:46:13;99976.84;;;9.53;72.08
22206;BME280;11272;50.104;8.754;2024-03-23T17:48:39;99971.53;;;9.53;71.79
22206;BME280;11272;50.104;8.754;2024-03-23T17:51:05;99971.50;;;9.56;72.53
22206;BME280;11272;50.104;8.754;2024-03-23T17:53:41;99973.16;;;9.60;72.48
22206;BME280;11272;50.104;8.754;2024-03-23T17:56:07;99999.56;;;9.63;72.99
22206;BME280;11272;50.104;8.754;2024-03-23T17:58:33;100030.44;;;9.65;72.86
22206;BME280;11272;50.104;8.754;2024-03-23T18:01:05;100037.00;;;9.51;72.45
22206;BME280;11272;50.104;8.754;2024-03-23T18:03:31;100035.59;;;9.35;72.05
22206;BME280;11272;50.104;8.754;2024-03-23T18:05:56;100039.44;;;9.20;71.74
22206;BME280;11272;50.104;8.754;2024-03-23T18:08:22;100035.22;;;9.11;72.67
22206;BME280;11272;50.104;8.754;2024-03-23T18:10:48;100029.22;;;9.03;72.49
22206;BME280;11272;50.104;8.754;2024-03-23T18:13:13;100032.16;;;8.90;72.99
22206;BME280;11272;50.104;8.754;2024-03-23T18:15:39;100025.25;;;8.82;73.36
22206;BME280;11272;50.104;8.754;2024-03-23T18:18:04;100022.72;;;8.78;73.46
22206;BME280;11272;50.104;8.754;2024-03-23T18:20:30;100021.91;;;8.74;74.17
22206;BME280;11272;50.104;8.754;2024-03-23T18:22:55;100015.66;;;8.77;74.61
22206;BME280;11272;50.104;8.754;2024-03-23T18:25:21;100013.00;;;8.78;74.70
22206;BME280;11272;50.104;8.754;2024-03-23T18:27:47;100007.69;;;8.78;75.07
22206;BME280;11272;50.104;8.754;2024-03-23T18:30:12;100012.19;;;8.75;74.70
22206;BME280;11272;50.104;8.754;2024-03-23T18:32:38;100009.72;;;8.66;75.15
22206;BME280;11272;50.104;8.754;2024-03-23T18:35:04;100012.44;;;8.63;75.59
22206;BME280;11272;50.104;8.754;2024-03-23T18:37:29;100010.66;;;8.65;75.73
22206;BME280;11272;50.104;8.754;2024-03-23T18:39:56;100020.31;;;8.66;75.81
22206;BME280;11272;50.104;8.754;2024-03-23T18:42:21;100015.97;;;8.62;75.72
22206;BME280;11272;50.104;8.754;2024-03-23T18:44:47;100015.19;;;8.57;76.27
22206;BME280;11272;50.104;8.754;2024-03-23T18:47:12;100025.81;;;8.55;76.39
22206;BME280;11272;50.104;8.754;2024-03-23T18:49:38;100032.91;;;8.55;76.43
22206;BME280;11272;50.104;8.754;2024-03-23T18:52:04;100030.19;;;8.58;76.38
22206;BME280;11272;50.104;8.754;2024-03-23T18:54:30;100031.06;;;8.58;76.83
22206;BME280;11272;50.104;8.754;2024-03-23T18:56:55;100036.34;;;8.58;77.62
22206;BME280;11272;50.104;8.754;2024-03-23T18:59:21;100040.56;;;8.67;77.68
22206;BME280;11272;50.104;8.754;2024-03-23T19:01:46;100038.66;;;8.75;78.22
22206;BME280;11272;50.104;8.754;2024-03-23T19:04:12;100040.34;;;8.79;78.21
22206;BME280;11272;50.104;8.754;2024-03-23T19:06:37;100039.44;;;8.80;77.99
22206;BME280;11272;50.104;8.754;2024-03-23T19:09:03;100040.41;;;8.76;77.81
22206;BME280;11272;50.104;8.754;2024-03-23T19:11:28;100047.63;;;8.68;77.65
22206;BME280;11272;50.104;8.754;2024-03-23T19:13:54;100033.53;;;8.66;77.52
22206;BME280;11272;50.104;8.754;2024-03-23T19:16:20;100048.78;;;8.55;76.96
22206;BME280;11272;50.104;8.754;2024-03-23T19:18:45;100045.38;;;8.48;77.43
22206;BME280;11272;50.104;8.754;2024-03-23T19:21:11;100045.31;;;8.51;77.96
22206;BME280;11272;50.104;8.754;2024-03-23T19:23:37;100042.63;;;8.53;77.78
22206;BME280;11272;50.104;8.754;2024-03-23T19:26:02;100037.38;;;8.50;77.14
22206;BME280;11272;50.104;8.754;2024-03-23T19:28:28;100039.25;;;8.44;77.16
22206;BME280;11272;50.104;8.754;2024-03-23T19:30:57;100040.09;;;8.47;77.62
22206;BME280;11272;50.104;8.754;2024-03-23T19:33:25;100041.88;;;8.46;77.03
22206;BME280;11272;50.104;8.754;2024-03-23T19:35:55;100042.81;;;8.43;77.07
22206;BME280;11272;50.104;8.754;2024-03-23T19:38:21;100037.59;;;8.39;76.60
22206;BME280;11272;50.104;8.754;2024-03-23T19:40:57;100036.78;;;8.37;77.15
22206;BME280;11272;50.104;8.754;2024-03-23T19:43:24;100032.47;;;8.31;76.89
22206;BME280;11272;50.104;8.754;2024-03-23T19:45:50;100021.00;;;8.31;77.21
22206;BME280;11272;50.104;8.754;2024-03-23T19:48:17;100016.63;;;8.30;77.19
22206;BME280;11272;50.104;8.754;2024-03-23T19:50:44;100014.88;;;8.27;76.88
22206;BME280;11272;50.104;8.754;2024-03-23T19:53:09;100015.03;;;8.18;76.46
22206;BME280;11272;50.104;8.754;2024-03-23T19:55:36;100024.00;;;8.11;76.47
22206;BME280;11272;50.104;8.754;2024-03-23T19:58:04;100028.53;;;8.03;76.66
22206;BME280;11272;50.104;8.754;2024-03-23T20:00:30;100038.31;;;7.98;77.08
22206;BME280;11272;50.104;8.754;2024-03-23T20:02:55;100034.81;;;7.96;77.20
22206;BME280;11272;50.104;8.754;2024-03-23T20:05:21;100031.28;;;7.97;77.25
22206;BME280;11272;50.104;8.754;2024-03-23T20:07:47;100035.69;;;7.98;77.32
22206;BME280;11272;50.104;8.754;2024-03-23T20:13:11;100034.81;;;7.96;77.87
22206;BME280;11272;50.104;8.754;2024-03-23T20:15:37;100028.63;;;7.98;77.52
22206;BME280;11272;50.104;8.754;2024-03-23T20:18:02;100012.94;;;7.89;77.24
22206;BME280;11272;50.104;8.754;2024-03-23T20:20:28;100020.94;;;7.85;77.82
22206;BME280;11272;50.104;8.754;2024-03-23T20:22:53;100009.53;;;7.81;77.85
22206;BME280;11272;50.104;8.754;2024-03-23T20:25:19;100006.94;;;7.80;77.78
22206;BME280;11272;50.104;8.754;2024-03-23T20:27:44;100014.88;;;7.78;77.86
22206;BME280;11272;50.104;8.754;2024-03-23T20:30:12;100003.44;;;7.76;77.64
22206;BME280;11272;50.104;8.754;2024-03-23T20:32:37;100007.91;;;7.74;77.48
22206;BME280;11272;50.104;8.754;2024-03-23T20:35:04;100012.41;;;7.69;77.13
22206;BME280;11272;50.104;8.754;2024-03-23T20:37:30;100000.16;;;7.64;77.28
22206;BME280;11272;50.104;8.754;2024-03-23T20:39:55;99999.41;;;7.54;76.47
22206;BME280;11272;50.104;8.754;2024-03-23T20:42:21;99996.91;;;7.46;76.51
22206;BME280;11272;50.104;8.754;2024-03-23T20:44:47;99997.00;;;7.40;76.24
22206;BME280;11272;50.104;8.754;2024-03-23T20:47:13;99995.41;;;7.32;76.13
22206;BME280;11272;50.104;8.754;2024-03-23T20:49:39;99994.63;;;7.24;76.32
22206;BME280;11272;50.104;8.754;2024-03-23T20:52:04;99986.78;;;7.16;76.30
22206;BME280;11272;50.104;8.754;2024-03-23T20:54:31;100001.81;;;7.12;75.91
22206;BME280;11272;50.104;8.754;2024-03-23T20:56:57;100005.41;;;7.08;76.24
22206;BME280;11272;50.104;8.754;2024-03-23T20:59:24;100016.00;;;7.05;76.07
22206;BME280;11272;50.104;8.754;2024-03-23T21:01:50;100012.53;;;7.02;75.79
22206;BME280;11272;50.104;8.754;2024-03-23T21:04:16;100022.28;;;6.97;76.33
22206;BME280;11272;50.104;8.754;2024-03-23T21:06:41;100010.88;;;6.95;76.45
22206;BME280;11272;50.104;8.754;2024-03-23T21:09:08;100011.78;;;6.94;76.35
22206;BME280;11272;50.104;8.754;2024-03-23T21:11:34;100016.13;;;6.98;77.41
22206;BME280;11272;50.104;8.754;2024-03-23T21:13:59;100016.91;;;7.04;77.82
22206;BME280;11272;50.104;8.754;2024-03-23T21:16:25;100015.00;;;7.14;78.29
22206;BME280;11272;50.104;8.754;2024-03-23T21:18:51;100012.28;;;7.20;78.44
22206;BME280;11272;50.104;8.754;2024-03-23T21:21:16;100002.53;;;7.25;78.36
22206;BME280;11272;50.104;8.754;2024-03-23T21:23:42;99998.06;;;7.30;78.46
22206;BME280;11272;50.104;8.754;2024-03-23T21:26:08;100009.41;;;7.35;78.36
22206;BME280;11272;50.104;8.754;2024-03-23T21:28:34;99997.03;;;7.39;78.49
22206;BME280;11272;50.104;8.754;2024-03-23T21:31:03;99998.75;;;7.41;78.26
22206;BME280;11272;50.104;8.754;2024-03-23T21:33:29;100005.78;;;7.42;77.75
22206;BME280;11272;50.104;8.754;2024-03-23T21:35:56;100004.00;;;7.43;78.26
22206;BME280;11272;50.104;8.754;2024-03-23T21:38:22;99999.56;;;7.45;78.40
22206;BME280;11272;50.104;8.754;2024-03-23T21:40:58;99996.06;;;7.43;78.16
22206;BME280;11272;50.104;8.754;2024-03-23T21:43:25;99989.91;;;7.44;77.83
22206;BME280;11272;50.104;8.754;2024-03-23T21:45:55;100004.84;;;7.46;78.33
22206;BME280;11272;50.104;8.754;2024-03-23T21:48:21;99996.03;;;7.47;77.90
22206;BME280;11272;50.104;8.754;2024-03-23T21:50:47;100002.13;;;7.49;77.99
22206;BME280;11272;50.104;8.754;2024-03-23T21:53:12;100001.16;;;7.56;78.02
22206;BME280;11272;50.104;8.754;2024-03-23T21:55:38;100007.22;;;7.61;77.92
22206;BME280;11272;50.104;8.754;2024-03-23T21:58:03;100001.88;;;7.65;77.94
22206;BME280;11272;50.104;8.754;2024-03-23T22:00:29;100012.41;;;7.68;77.52
22206;BME280;11272;50.104;8.754;2024-03-23T22:02:55;100001.78;;;7.71;77.70
22206;BME280;11272;50.104;8.754;2024-03-23T22:05:24;100000.88;;;7.72;77.43
22206;BME280;11272;50.104;8.754;2024-03-23T22:07:53;99986.81;;;7.71;77.51
22206;BME280;11272;50.104;8.754;2024-03-23T22:10:18;99991.19;;;7.74;77.25
22206;BME280;11272;50.104;8.754;2024-03-23T22:12:45;99986.78;;;7.74;77.17
22206;BME280;11272;50.104;8.754;2024-03-23T22:15:11;99981.50;;;7.73;77.06
22206;BME280;11272;50.104;8.754;2024-03-23T22:17:39;99982.31;;;7.75;76.72
22206;BME280;11272;50.104;8.754;2024-03-23T22:20:06;99982.31;;;7.76;76.42
22206;BME280;11272;50.104;8.754;2024-03-23T22:22:31;99977.00;;;7.78;76.60
22206;BME280;11272;50.104;8.754;2024-03-23T22:24:57;99975.22;;;7.80;76.52
22206;BME280;11272;50.104;8.754;2024-03-23T22:27:22;99968.13;;;7.82;76.48
22206;BME280;11272;50.104;8.754;2024-03-23T22:29:48;99963.72;;;7.81;76.05
22206;BME280;11272;50.104;8.754;2024-03-23T22:32:13;99964.66;;;7.78;75.98
22206;BME280;11272;50.104;8.754;2024-03-23T22:34:39;99960.28;;;7.76;75.74
22206;BME280;11272;50.104;8.754;2024-03-23T22:37:06;99952.44;;;7.73;76.05
22206;BME280;11272;50.104;8.754;2024-03-23T22:39:33;99951.56;;;7.72;75.78
22206;BME280;11272;50.104;8.754;2024-03-23T22:41:58;99949.81;;;7.70;75.70
22206;BME280;11272;50.104;8.754;2024-03-23T22:44:24;99941.97;;;7.67;75.41
22206;BME280;11272;50.104;8.754;2024-03-23T22:46:50;99940.28;;;7.63;75.02
22206;BME280;11272;50.104;8.754;2024-03-23T22:49:17;99946.53;;;7.57;75.21
22206;BME280;11272;50.104;8.754;2024-03-23T22:51:43;99942.94;;;7.61;75.49
22206;BME280;11272;50.104;8.754;2024-03-23T22:54:09;99935.00;;;7.63;75.28
22206;BME280;11272;50.104;8.754;2024-03-23T22:56:34;99936.75;;;7.64;75.17
22206;BME280;11272;50.104;8.754;2024-03-23T22:59:01;99938.44;;;7.66;75.25
22206;BME280;11272;50.104;8.754;2024-03-23T23:01:26;99930.50;;;7.68;75.66
22206;BME280;11272;50.104;8.754;2024-03-23T23:03:53;99930.41;;;7.74;75.05
22206;BME280;11272;50.104;8.754;2024-03-23T23:06:19;99932.13;;;7.75;74.76
22206;BME280;11272;50.104;8.754;2024-03-23T23:08:44;99917.19;;;7.72;74.64
22206;BME280;11272;50.104;8.754;2024-03-23T23:11:10;99917.19;;;7.74;74.99
22206;BME280;11272;50.104;8.754;2024-03-23T23:13:35;99920.66;;;7.76;74.83
22206;BME280;11272;50.104;8.754;2024-03-23T23:16:02;99911.91;;;7.74;74.79
22206;BME280;11272;50.104;8.754;2024-03-23T23:18:27;99903.97;;;7.74;74.87
22206;BME280;11272;50.104;8.754;2024-03-23T23:20:53;99900.41;;;7.75;74.59
22206;BME280;11272;50.104;8.754;2024-03-23T23:23:20;99895.09;;;7.76;74.46
22206;BME280;11272;50.104;8.754;2024-03-23T23:25:45;99894.19;;;7.79;74.51
22206;BME280;11272;50.104;8.754;2024-03-23T23:28:12;99890.66;;;7.80;74.48
22206;BME280;11272;50.104;8.754;2024-03-23T23:30:40;99888.81;;;7.82;74.01
22206;BME280;11272;50.104;8.754;2024-03-23T23:33:06;99885.38;;;7.78;73.77
22206;BME280;11272;50.104;8.754;2024-03-23T23:35:31;99888.84;;;7.80;74.23
22206;BME280;11272;50.104;8.754;2024-03-23T23:37:57;99887.09;;;7.81;73.94
22206;BME280;11272;50.104;8.754;2024-03-23T23:40:23;99890.56;;;7.83;73.80
22206;BME280;11272;50.104;8.754;2024-03-23T23:42:48;99889.69;;;7.82;73.59
22206;BME280;11272;50.104;8.754;2024-03-23T23:45:14;99887.94;;;7.83;73.69
22206;BME280;11272;50.104;8.754;2024-03-23T23:47:41;99887.09;;;7.81;73.56
22206;BME280;11272;50.104;8.754;2024-03-23T23:50:08;99876.47;;;7.84;73.70
22206;BME280;11272;50.104;8.754;2024-03-23T23:52:33;99876.41;;;7.87;73.38
22206;BME280;11272;50.104;8.754;2024-03-23T23:55:01;99870.19;;;7.89;73.29
22206;BME280;11272;50.104;8.754;2024-03-23T23:57:26;99875.50;;;7.88;73.42
22206;BME280;11272;50.104;8.754;2024-03-23T23:59:52;99871.97;;;7.87;73.21
